Time;durP1;ratioP1;P1;durP2;ratioP2;P2;SDS_P1;SDS_P2;PMS_P1;PMS_P2;Temp;Humidity;BMP_temperature;BMP_pressure;BME280_temperature;BME280_humidity;BME280_pressure;Samples;Min_cycle;Max_cycle;Signal;HPM_P1;HPM_P2
2022/08/04 00:02:24;;;;;;;4.32;3.28;;;22.10;99.90;;;;;;5093158;28;20291;-72
2022/08/04 00:05:00;;;;;;;9.05;3.65;;;22.00;99.90;;;;;;5090329;28;20218;-72
2022/08/04 00:07:37;;;;;;;5.22;3.30;;;22.10;99.90;;;;;;5087204;28;20674;-72
2022/08/04 00:10:06;;;;;;;7.45;3.08;;;22.10;99.90;;;;;;5091724;28;20201;-73
2022/08/04 00:12:37;;;;;;;5.82;3.30;;;22.00;99.90;;;;;;5079550;28;20196;-72
2022/08/04 00:15:08;;;;;;;6.00;3.28;;;21.90;99.90;;;;;;5087471;28;20285;-72
2022/08/04 00:17:44;;;;;;;6.30;3.25;;;21.90;99.90;;;;;;5079764;28;20193;-73
2022/08/04 00:20:18;;;;;;;4.85;3.03;;;21.70;99.90;;;;;;5077660;28;20266;-72
2022/08/04 00:22:46;;;;;;;4.82;3.15;;;21.70;99.90;;;;;;5092033;28;20288;-72
2022/08/04 00:25:13;;;;;;;4.10;3.28;;;21.60;99.90;;;;;;5092321;28;20241;-72
2022/08/04 00:27:40;;;;;;;4.63;3.30;;;21.50;99.90;;;;;;5090405;28;20205;-73
2022/08/04 00:30:10;;;;;;;6.45;3.50;;;21.50;99.90;;;;;;5091763;28;20204;-72
2022/08/04 00:32:39;;;;;;;3.38;3.08;;;21.40;99.90;;;;;;5091705;28;20622;-72
2022/08/04 00:35:08;;;;;;;4.13;3.35;;;21.30;99.90;;;;;;5092156;28;20650;-72
2022/08/04 00:37:37;;;;;;;5.65;3.78;;;21.00;99.90;;;;;;5091420;28;20636;-72
2022/08/04 00:40:15;;;;;;;4.85;3.30;;;20.50;99.90;;;;;;5088539;28;20210;-72
2022/08/04 00:42:47;;;;;;;5.82;3.45;;;20.10;99.90;;;;;;5090374;28;20629;-72
2022/08/04 00:45:38;;;;;;;4.38;3.63;;;20.10;99.90;;;;;;5089832;28;20217;-73
2022/08/04 00:48:16;;;;;;;3.60;3.17;;;20.30;99.90;;;;;;5076919;28;20292;-72
2022/08/04 00:50:45;;;;;;;3.55;3.25;;;20.30;99.90;;;;;;5098581;28;20239;-72
2022/08/04 00:53:30;;;;;;;4.45;3.38;;;20.20;99.90;;;;;;5097606;28;20237;-72
2022/08/04 00:56:23;;;;;;;6.25;3.45;;;20.10;99.90;;;;;;5097850;28;20288;-72
2022/08/04 00:59:02;;;;;;;5.60;3.65;;;20.20;99.90;;;;;;5097756;28;20205;-72
2022/08/04 01:01:44;;;;;;;6.60;3.90;;;20.30;99.90;;;;;;5098772;28;20236;-72
2022/08/04 01:04:19;;;;;;;6.57;3.90;;;20.50;99.90;;;;;;5096691;28;20220;-72
2022/08/04 01:07:08;;;;;;;6.47;4.05;;;20.60;99.90;;;;;;5086575;28;20227;-72
2022/08/04 01:09:49;;;;;;;8.65;4.60;;;20.70;99.90;;;;;;5080777;28;20227;-72
2022/08/04 01:12:32;;;;;;;6.85;4.05;;;20.70;99.90;;;;;;5086259;28;20305;-73
2022/08/04 01:15:06;;;;;;;4.32;3.72;;;20.60;99.90;;;;;;5094957;28;20205;-72
2022/08/04 01:18:04;;;;;;;6.22;3.63;;;20.60;99.90;;;;;;5097734;28;20647;-72
2022/08/04 01:20:34;;;;;;;4.78;3.60;;;20.70;99.90;;;;;;5098236;28;20216;-72
2022/08/04 01:23:50;;;;;;;6.72;4.13;;;20.60;99.90;;;;;;5098828;28;20196;-72
2022/08/04 01:26:43;;;;;;;6.18;3.30;;;20.50;99.90;;;;;;5097837;28;20593;-73
2022/08/04 01:29:12;;;;;;;4.97;3.70;;;20.60;99.90;;;;;;5097873;28;20644;-72
2022/08/04 01:31:59;;;;;;;6.07;3.42;;;20.60;99.90;;;;;;5096970;28;20207;-72
2022/08/04 01:34:29;;;;;;;5.03;3.42;;;20.40;99.90;;;;;;5088123;28;20634;-72
2022/08/04 01:37:03;;;;;;;6.57;3.45;;;20.50;99.90;;;;;;5097339;28;20216;-72
2022/08/04 01:39:41;;;;;;;3.72;3.33;;;20.40;99.90;;;;;;5097801;28;20190;-72
2022/08/04 01:42:09;;;;;;;3.60;3.30;;;20.50;99.90;;;;;;5096785;28;20288;-72
2022/08/04 01:44:39;;;;;;;3.92;3.42;;;20.40;99.90;;;;;;5085245;28;20222;-72
2022/08/04 01:47:08;;;;;;;4.22;3.05;;;20.30;99.90;;;;;;5098236;28;20193;-72
2022/08/04 01:49:37;;;;;;;5.55;3.58;;;20.40;99.90;;;;;;5097874;28;20209;-72
2022/08/04 01:52:09;;;;;;;5.35;3.20;;;20.30;99.90;;;;;;5097834;28;20247;-72
2022/08/04 01:54:39;;;;;;;4.82;3.15;;;20.30;99.90;;;;;;5097385;28;20219;-72
2022/08/04 01:57:07;;;;;;;4.80;3.60;;;19.60;99.90;;;;;;5097323;28;20554;-72
2022/08/04 01:59:36;;;;;;;6.50;3.70;;;19.30;99.90;;;;;;5094190;28;20753;-72
2022/08/04 02:02:05;;;;;;;5.72;3.40;;;19.50;99.90;;;;;;5094312;28;20198;-72
2022/08/04 02:04:32;;;;;;;5.72;3.30;;;19.70;99.90;;;;;;5094472;28;20235;-72
2022/08/04 02:07:13;;;;;;;4.32;3.10;;;19.50;99.90;;;;;;5093705;28;20570;-72
2022/08/04 02:09:48;;;;;;;4.53;3.53;;;19.70;99.90;;;;;;5094260;28;20292;-72
2022/08/04 02:12:24;;;;;;;5.05;3.40;;;19.70;99.90;;;;;;5093742;28;20715;-72
2022/08/04 02:14:58;;;;;;;4.85;3.53;;;19.80;99.90;;;;;;5095155;28;20664;-72
2022/08/04 02:17:31;;;;;;;4.82;3.63;;;19.80;99.90;;;;;;5092024;28;20198;-72
2022/08/04 02:20:09;;;;;;;5.10;3.42;;;19.90;99.90;;;;;;5094460;28;20739;-73
2022/08/04 02:22:41;;;;;;;3.60;3.30;;;19.80;99.90;;;;;;5093408;28;20202;-72
2022/08/04 02:25:10;;;;;;;5.30;3.72;;;19.90;99.90;;;;;;5093544;28;20217;-72
2022/08/04 02:27:55;;;;;;;5.35;4.00;;;19.80;99.90;;;;;;5094196;28;20543;-72
2022/08/04 02:30:28;;;;;;;5.88;3.80;;;19.80;99.90;;;;;;5093346;28;20216;-72
2022/08/04 02:33:01;;;;;;;5.72;3.55;;;19.60;99.90;;;;;;5078781;28;20233;-72
2022/08/04 02:35:32;;;;;;;8.57;4.15;;;19.60;99.90;;;;;;5094351;28;20287;-72
2022/08/04 02:38:11;;;;;;;6.72;3.55;;;19.80;99.90;;;;;;5094026;28;20659;-72
2022/08/04 02:40:40;;;;;;;6.63;4.10;;;19.70;99.90;;;;;;5073245;28;20636;-72
2022/08/04 02:43:09;;;;;;;7.95;4.25;;;19.60;99.90;;;;;;5091365;28;20209;-72
2022/08/04 02:45:36;;;;;;;6.85;3.95;;;19.70;99.90;;;;;;5094387;28;20221;-72
2022/08/04 02:48:08;;;;;;;8.82;4.68;;;19.70;99.90;;;;;;5093627;28;20213;-72
2022/08/04 02:50:37;;;;;;;5.53;4.07;;;19.80;99.90;;;;;;5093250;28;20205;-72
2022/08/04 02:53:06;;;;;;;6.78;3.65;;;19.80;99.90;;;;;;5092927;28;20513;-72
2022/08/04 02:55:35;;;;;;;7.72;4.45;;;19.80;99.90;;;;;;5092868;28;20208;-72
2022/08/04 02:58:04;;;;;;;5.90;3.92;;;19.80;99.90;;;;;;5093641;28;20197;-72
2022/08/04 03:00:31;;;;;;;12.85;4.13;;;19.70;99.90;;;;;;5093141;28;20417;-71
2022/08/04 03:03:10;;;;;;;7.97;4.18;;;19.50;99.90;;;;;;5093415;28;20681;-71
2022/08/04 03:05:58;;;;;;;8.27;4.07;;;19.60;99.90;;;;;;5092758;28;20714;-72
2022/08/04 03:09:13;;;;;;;5.55;4.40;;;19.70;99.90;;;;;;5093817;28;20209;-72
2022/08/04 03:12:06;;;;;;;5.38;4.10;;;19.50;99.90;;;;;;5091481;28;20220;-72
2022/08/04 03:15:05;;;;;;;5.28;4.13;;;19.60;99.90;;;;;;5093345;28;20205;-71
2022/08/04 03:18:05;;;;;;;6.63;4.88;;;19.50;99.90;;;;;;5047173;28;20301;-72
2022/08/04 03:21:00;;;;;;;11.32;8.05;;;19.40;99.90;;;;;;5088483;28;20249;-72
2022/08/04 03:23:59;;;;;;;7.65;4.88;;;19.50;99.90;;;;;;5093181;28;20546;-72
2022/08/04 03:27:11;;;;;;;7.82;4.78;;;19.70;99.90;;;;;;5092129;28;20556;-72
2022/08/04 03:30:13;;;;;;;5.35;4.10;;;19.70;99.90;;;;;;5008192;28;20208;-72
2022/08/04 03:33:34;;;;;;;9.20;4.63;;;19.80;99.90;;;;;;5010520;28;20204;-72
2022/08/04 03:36:28;;;;;;;6.72;4.60;;;19.70;99.90;;;;;;5060352;28;20212;-72
2022/08/04 03:39:28;;;;;;;6.97;4.40;;;19.50;99.90;;;;;;5092984;28;20671;-72
2022/08/04 03:42:17;;;;;;;4.93;4.03;;;19.50;99.90;;;;;;5089747;28;20284;-71
2022/08/04 03:45:15;;;;;;;7.90;4.38;;;19.50;99.90;;;;;;5092814;28;20209;-71
2022/08/04 03:48:10;;;;;;;5.35;4.00;;;19.40;99.90;;;;;;5092241;28;20210;-71
2022/08/04 03:53:56;;;;;;;5.22;4.30;;;19.40;99.90;;;;;;5091216;28;20220;-71
2022/08/04 03:56:47;;;;;;;6.70;4.10;;;19.20;99.90;;;;;;5073321;28;20202;-71
2022/08/04 03:59:27;;;;;;;7.18;3.85;;;19.10;99.90;;;;;;5057036;28;20641;-71
2022/08/04 04:02:29;;;;;;;6.82;4.68;;;19.20;99.90;;;;;;5092917;28;20193;-71
2022/08/04 04:05:25;;;;;;;4.82;4.00;;;18.90;99.90;;;;;;5089169;28;20649;-71
2022/08/04 04:08:31;;;;;;;5.72;4.07;;;18.90;99.90;;;;;;5084573;28;20216;-71
2022/08/04 04:11:28;;;;;;;6.63;4.43;;;19.10;99.90;;;;;;5075444;28;20245;-71
2022/08/04 04:14:18;;;;;;;7.28;4.32;;;19.20;99.90;;;;;;5085936;28;20570;-71
2022/08/04 04:17:21;;;;;;;8.18;4.47;;;19.30;99.90;;;;;;5083653;28;20640;-71
2022/08/04 04:20:00;;;;;;;7.05;4.40;;;19.20;99.90;;;;;;5091431;28;20261;-71
2022/08/04 04:22:44;;;;;;;6.13;3.95;;;19.00;99.90;;;;;;5091711;28;20220;-71
2022/08/04 04:25:25;;;;;;;5.53;4.20;;;19.10;99.90;;;;;;5091679;28;20320;-71
2022/08/04 04:28:25;;;;;;;8.30;4.30;;;19.10;99.90;;;;;;5092428;28;20365;-71
2022/08/04 04:31:03;;;;;;;8.95;4.28;;;19.20;99.90;;;;;;5065899;28;20215;-71
2022/08/04 04:33:44;;;;;;;6.57;4.00;;;19.40;99.90;;;;;;5091504;28;20263;-71
2022/08/04 04:36:18;;;;;;;4.68;4.03;;;19.60;99.90;;;;;;5091851;28;20300;-71
2022/08/04 04:39:10;;;;;;;5.68;3.90;;;19.80;99.90;;;;;;5092365;28;20288;-71
2022/08/04 04:41:53;;;;;;;8.10;4.70;;;19.80;99.90;;;;;;5091097;28;20205;-71
2022/08/04 04:44:47;;;;;;;7.03;4.40;;;20.00;99.90;;;;;;5092126;28;20300;-71
2022/08/04 04:47:23;;;;;;;7.03;4.60;;;19.90;99.90;;;;;;5092031;28;20221;-71
2022/08/04 04:49:57;;;;;;;6.57;4.22;;;19.70;99.90;;;;;;5091797;28;20694;-71
2022/08/04 04:52:28;;;;;;;5.07;4.13;;;20.00;99.90;;;;;;5084458;28;20281;-71
2022/08/04 04:55:02;;;;;;;7.53;4.75;;;20.00;99.90;;;;;;5083446;28;20542;-71
2022/08/04 04:57:35;;;;;;;6.85;4.78;;;19.90;99.90;;;;;;5092216;28;20674;-71
2022/08/04 05:00:07;;;;;;;5.03;4.05;;;20.00;99.90;;;;;;5092394;28;20300;-71
2022/08/04 05:03:10;;;;;;;6.22;4.15;;;20.20;99.90;;;;;;5091682;28;20213;-71
2022/08/04 05:06:00;;;;;;;6.57;4.15;;;20.20;99.90;;;;;;5054554;28;20237;-71
2022/08/04 05:08:40;;;;;;;8.00;5.22;;;20.20;99.90;;;;;;5090900;28;20205;-71
2022/08/04 05:11:32;;;;;;;7.53;4.82;;;20.30;99.90;;;;;;5091354;28;20220;-71
2022/08/04 05:14:03;;;;;;;7.63;4.90;;;20.50;99.90;;;;;;5089056;28;20205;-71
2022/08/04 05:16:36;;;;;;;9.55;4.75;;;20.80;99.90;;;;;;5083541;28;20234;-72
2022/08/04 05:19:16;;;;;;;6.60;4.70;;;20.80;99.90;;;;;;5083657;28;20213;-71
2022/08/04 05:21:46;;;;;;;12.60;4.97;;;20.90;99.90;;;;;;5091182;28;20286;-72
2022/08/04 05:24:17;;;;;;;7.57;5.32;;;20.40;99.90;;;;;;5091393;28;20201;-67
2022/08/04 05:26:47;;;;;;;8.68;5.70;;;20.40;99.90;;;;;;5090893;28;20213;-67
2022/08/04 05:29:19;;;;;;;9.45;4.90;;;20.20;99.90;;;;;;5091948;28;20676;-68
2022/08/04 05:31:52;;;;;;;7.18;5.13;;;20.50;99.90;;;;;;5091857;28;20808;-68
2022/08/04 05:34:22;;;;;;;10.13;4.95;;;20.50;99.90;;;;;;5094007;28;20216;-68
2022/08/04 05:36:53;;;;;;;9.55;5.10;;;20.80;99.90;;;;;;5095246;28;20198;-68
2022/08/04 05:39:22;;;;;;;8.15;5.28;;;21.00;99.90;;;;;;5094988;28;20206;-68
2022/08/04 05:41:51;;;;;;;8.40;5.00;;;21.20;99.90;;;;;;5094615;28;20205;-67
2022/08/04 05:44:19;;;;;;;9.15;5.38;;;21.30;99.90;;;;;;5095080;28;20593;-67
2022/08/04 05:46:52;;;;;;;7.57;5.00;;;21.50;99.90;;;;;;5095487;28;20230;-68
2022/08/04 05:49:21;;;;;;;7.95;5.10;;;21.50;99.90;;;;;;5094313;28;20300;-68
2022/08/04 05:51:49;;;;;;;8.55;5.13;;;21.20;99.90;;;;;;5094992;28;20209;-67
2022/08/04 05:54:19;;;;;;;6.47;5.10;;;21.20;99.90;;;;;;5095368;28;20221;-68
2022/08/04 05:56:47;;;;;;;8.23;4.85;;;21.40;99.90;;;;;;5095145;28;20194;-67
2022/08/04 05:59:16;;;;;;;5.65;4.30;;;21.40;99.90;;;;;;5094557;28;20228;-68
2022/08/04 06:01:45;;;;;;;6.05;4.63;;;21.60;99.90;;;;;;5086022;28;20314;-67
2022/08/04 06:04:15;;;;;;;8.65;4.60;;;21.80;99.90;;;;;;5079816;28;20198;-67
2022/08/04 06:06:44;;;;;;;5.28;4.78;;;22.10;99.90;;;;;;5075106;28;20218;-68
2022/08/04 06:09:11;;;;;;;5.85;4.45;;;22.10;99.90;;;;;;5074724;28;20198;-68
2022/08/04 06:11:39;;;;;;;7.03;4.63;;;22.00;99.90;;;;;;5074008;28;20590;-67
2022/08/04 06:14:10;;;;;;;4.75;4.32;;;22.00;99.90;;;;;;5094209;28;20236;-67
2022/08/04 06:16:41;;;;;;;6.30;4.57;;;22.20;99.90;;;;;;5094458;28;20296;-68
2022/08/04 06:19:09;;;;;;;6.25;4.65;;;22.30;99.90;;;;;;5094216;28;20300;-68
2022/08/04 06:21:47;;;;;;;8.10;4.35;;;22.40;99.90;;;;;;5094441;28;20209;-68
2022/08/04 06:24:17;;;;;;;6.18;4.03;;;22.60;99.90;;;;;;5094474;28;20725;-67
2022/08/04 06:26:47;;;;;;;5.43;4.15;;;22.90;99.90;;;;;;5094063;28;20225;-68
2022/08/04 06:29:22;;;;;;;4.50;3.85;;;23.10;99.90;;;;;;5094392;28;20202;-68
2022/08/04 06:31:57;;;;;;;9.57;5.28;;;23.20;99.90;;;;;;5094599;28;20209;-68
2022/08/04 06:34:26;;;;;;;8.25;4.45;;;23.20;99.90;;;;;;5092996;28;20288;-67
2022/08/04 06:36:56;;;;;;;6.40;4.20;;;23.20;99.90;;;;;;5094374;28;20205;-67
2022/08/04 06:39:25;;;;;;;8.18;4.57;;;23.50;99.90;;;;;;5093824;28;20228;-67
2022/08/04 06:41:53;;;;;;;8.27;4.30;;;23.60;99.90;;;;;;5093516;28;20201;-68
2022/08/04 06:44:22;;;;;;;8.95;4.82;;;23.60;99.90;;;;;;5093315;28;20289;-68
2022/08/04 06:46:49;;;;;;;7.07;4.47;;;23.90;99.90;;;;;;5078049;28;20668;-69
2022/08/04 06:49:18;;;;;;;10.20;5.45;;;24.20;99.90;;;;;;5085113;28;20201;-68
2022/08/04 06:51:46;;;;;;;11.20;4.50;;;24.40;99.90;;;;;;5093665;28;20206;-68
2022/08/04 06:54:15;;;;;;;7.85;4.75;;;24.50;99.90;;;;;;5094083;28;20292;-67
2022/08/04 06:56:44;;;;;;;12.25;4.70;;;24.70;99.90;;;;;;5093549;28;20212;-68
2022/08/04 06:59:14;;;;;;;11.50;4.88;;;24.70;99.90;;;;;;5094020;28;20578;-68
2022/08/04 07:01:41;;;;;;;11.15;5.30;;;24.60;99.90;;;;;;5093696;28;20731;-68
2022/08/04 07:04:08;;;;;;;7.85;5.22;;;24.70;99.90;;;;;;5092228;28;20297;-68
2022/08/04 07:06:36;;;;;;;8.70;4.85;;;24.80;99.90;;;;;;5093898;28;20316;-68
2022/08/04 07:09:03;;;;;;;13.57;5.43;;;25.00;99.90;;;;;;5093447;28;20284;-68
2022/08/04 07:11:33;;;;;;;7.53;4.55;;;25.30;98.60;;;;;;5093352;28;20716;-68
2022/08/04 07:14:00;;;;;;;7.43;4.38;;;25.60;98.00;;;;;;5093729;28;20300;-67
2022/08/04 07:16:29;;;;;;;7.55;4.43;;;25.80;96.70;;;;;;5092846;28;20198;-68
2022/08/04 07:18:56;;;;;;;5.90;4.13;;;25.70;95.20;;;;;;5093085;28;20248;-68
2022/08/04 07:21:25;;;;;;;7.20;4.18;;;25.70;92.70;;;;;;5091780;28;20295;-68
2022/08/04 07:23:52;;;;;;;7.50;4.03;;;26.10;92.00;;;;;;5093580;28;20628;-68
2022/08/04 07:26:20;;;;;;;5.78;4.10;;;26.10;92.70;;;;;;5093291;28;20239;-68
2022/08/04 07:28:48;;;;;;;8.25;4.35;;;26.10;90.50;;;;;;5093194;28;20306;-68
2022/08/04 07:31:17;;;;;;;11.10;4.40;;;26.30;85.00;;;;;;5086776;28;20281;-68
2022/08/04 07:33:47;;;;;;;6.38;4.45;;;26.30;88.50;;;;;;5090665;28;20736;-68
2022/08/04 07:36:16;;;;;;;5.43;3.80;;;26.40;83.10;;;;;;5092575;28;20200;-68
2022/08/04 07:38:43;;;;;;;4.93;4.20;;;26.50;80.20;;;;;;5084881;28;20211;-68
2022/08/04 07:41:11;;;;;;;5.45;3.35;;;26.70;78.30;;;;;;5092423;28;20294;-68
2022/08/04 07:43:38;;;;;;;4.38;3.95;;;27.00;77.20;;;;;;5093035;28;20557;-68
2022/08/04 07:46:06;;;;;;;4.40;3.53;;;27.20;74.30;;;;;;5092627;28;20206;-68
2022/08/04 07:48:34;;;;;;;4.15;3.78;;;27.30;61.70;;;;;;5092382;28;20840;-68
2022/08/04 07:51:01;;;;;;;6.90;3.63;;;27.30;56.80;;;;;;5092941;28;20207;-68
2022/08/04 07:53:29;;;;;;;4.03;3.47;;;27.40;55.40;;;;;;5092483;28;20671;-68
2022/08/04 07:55:56;;;;;;;5.82;3.40;;;27.60;52.30;;;;;;5092417;28;20626;-68
2022/08/04 07:58:23;;;;;;;6.75;3.67;;;27.70;54.70;;;;;;5091933;28;20652;-68
2022/08/04 08:00:51;;;;;;;7.28;3.30;;;27.80;45.20;;;;;;5092685;28;20256;-69
2022/08/04 08:03:20;;;;;;;4.10;3.17;;;28.10;38.20;;;;;;5091206;28;20204;-68
2022/08/04 08:05:47;;;;;;;4.82;3.63;;;28.10;39.80;;;;;;5088505;28;20206;-68
2022/08/04 08:08:14;;;;;;;4.10;3.05;;;28.20;36.80;;;;;;5087475;28;20309;-68
2022/08/04 08:10:47;;;;;;;5.07;3.47;;;28.30;35.80;;;;;;5089748;28;20216;-68
2022/08/04 08:13:15;;;;;;;6.45;3.20;;;28.50;36.70;;;;;;5079490;28;20575;-68
2022/08/04 08:15:44;;;;;;;6.22;3.30;;;28.60;35.40;;;;;;5082622;28;20198;-68
2022/08/04 08:18:11;;;;;;;3.30;3.00;;;28.60;32.90;;;;;;5085580;28;20213;-68
2022/08/04 08:20:39;;;;;;;5.03;3.35;;;28.80;30.10;;;;;;5092732;28;20284;-68
2022/08/04 08:23:09;;;;;;;3.35;2.92;;;29.10;29.40;;;;;;5091692;28;20570;-68
2022/08/04 08:25:36;;;;;;;4.68;3.35;;;29.40;26.30;;;;;;5092385;28;20659;-68
2022/08/04 08:28:04;;;;;;;3.85;3.38;;;29.40;25.90;;;;;;5091773;28;20308;-68
2022/08/04 08:30:32;;;;;;;4.13;3.20;;;29.60;25.20;;;;;;5092183;28;20205;-68
2022/08/04 08:33:03;;;;;;;4.25;3.33;;;29.60;24.40;;;;;;5092064;28;20636;-68
2022/08/04 08:35:41;;;;;;;3.22;2.92;;;29.70;24.00;;;;;;5092680;28;20201;-71
2022/08/04 08:38:10;;;;;;;3.55;2.85;;;29.90;21.30;;;;;;5091651;28;20288;-72
2022/08/04 08:40:48;;;;;;;4.55;2.88;;;30.00;21.60;;;;;;5092624;28;20286;-72
2022/08/04 08:43:26;;;;;;;3.00;2.80;;;30.20;18.80;;;;;;5091754;28;20227;-72
2022/08/04 08:46:23;;;;;;;3.58;2.95;;;30.50;16.70;;;;;;5092581;28;20232;-72
2022/08/04 08:49:09;;;;;;;3.85;2.92;;;30.30;16.90;;;;;;5091091;28;20466;-72
2022/08/04 08:51:49;;;;;;;6.45;3.28;;;30.70;13.80;;;;;;5092139;28;20296;-73
2022/08/04 08:54:47;;;;;;;3.05;2.75;;;30.80;15.10;;;;;;5092090;28;20220;-78
2022/08/04 08:57:40;;;;;;;4.90;3.05;;;30.80;16.50;;;;;;5091842;28;20209;-71
2022/08/04 09:00:15;;;;;;;3.65;2.90;;;31.10;15.50;;;;;;5091578;28;20255;-71
2022/08/04 09:03:15;;;;;;;4.55;2.70;;;31.10;15.80;;;;;;5092182;28;20208;-68
2022/08/04 09:06:04;;;;;;;3.13;2.70;;;31.70;17.70;;;;;;5088852;28;20212;-72
2022/08/04 09:08:53;;;;;;;5.05;2.63;;;32.20;11.30;;;;;;5086851;28;20236;-78
2022/08/04 09:11:24;;;;;;;9.30;3.10;;;32.60;10.50;;;;;;5089219;28;20197;-78
2022/08/04 09:13:56;;;;;;;3.00;2.70;;;32.70;6.00;;;;;;5090314;28;20209;-69
2022/08/04 09:16:31;;;;;;;3.28;2.97;;;33.20;4.00;;;;;;5095535;28;20551;-78
2022/08/04 09:19:06;;;;;;;5.60;2.90;;;33.30;7.30;;;;;;5094088;28;20296;-78
2022/08/04 09:21:38;;;;;;;2.70;2.50;;;33.20;5.20;;;;;;5094202;28;20201;-72
2022/08/04 09:24:12;;;;;;;2.50;2.30;;;33.50;5.50;;;;;;5095083;28;20258;-72
2022/08/04 09:26:46;;;;;;;3.50;2.65;;;33.70;4.40;;;;;;5094206;28;20573;-72
2022/08/04 09:29:19;;;;;;;2.97;2.50;;;33.70;2.60;;;;;;5086798;28;20243;-72
2022/08/04 09:31:57;;;;;;;3.10;2.42;;;34.20;1.50;;;;;;5092805;28;20197;-72
2022/08/04 09:34:38;;;;;;;2.65;2.45;;;34.70;1.00;;;;;;5072655;28;20636;-72
2022/08/04 09:37:12;;;;;;;5.68;3.10;;;35.20;1.00;;;;;;5074701;28;20330;-72
2022/08/04 09:39:54;;;;;;;2.92;2.70;;;35.30;1.00;;;;;;5074904;28;20217;-72
2022/08/04 09:42:28;;;;;;;3.38;3.08;;;35.30;1.00;;;;;;5095219;28;20243;-72
2022/08/04 09:45:02;;;;;;;5.13;2.53;;;35.20;1.00;;;;;;5094326;28;20212;-72
2022/08/04 09:47:37;;;;;;;3.03;2.70;;;34.90;1.00;;;;;;5094987;28;20573;-73
2022/08/04 09:50:13;;;;;;;3.13;2.50;;;35.30;1.00;;;;;;5076244;28;20251;-73
2022/08/04 09:52:50;;;;;;;3.30;2.70;;;35.30;1.00;;;;;;5093152;28;20201;-73
2022/08/04 09:55:40;;;;;;;3.92;2.67;;;35.80;1.00;;;;;;5076582;28;20647;-73
2022/08/04 09:58:15;;;;;;;3.10;2.80;;;35.70;1.00;;;;;;5094214;28;20244;-73
2022/08/04 10:00:47;;;;;;;3.75;2.90;;;35.70;1.00;;;;;;5094446;28;20237;-73
2022/08/04 10:03:16;;;;;;;4.93;2.65;;;35.50;1.00;;;;;;5093550;28;20651;-73
2022/08/04 10:06:06;;;;;;;3.85;2.90;;;35.70;1.00;;;;;;5093973;28;20259;-72
2022/08/04 10:08:56;;;;;;;3.60;2.80;;;35.70;1.00;;;;;;5094326;28;20226;-78
2022/08/04 10:11:40;;;;;;;3.88;2.88;;;35.90;1.00;;;;;;5093846;28;20255;-78
2022/08/04 10:14:23;;;;;;;3.85;2.80;;;36.30;1.00;;;;;;5094333;28;20271;-72
2022/08/04 10:17:12;;;;;;;3.17;2.90;;;36.20;1.00;;;;;;5085583;28;20640;-72
2022/08/04 10:19:41;;;;;;;3.63;3.33;;;36.00;1.00;;;;;;5091057;28;20209;-72
2022/08/04 10:22:15;;;;;;;3.72;2.85;;;36.40;1.00;;;;;;5088449;28;20194;-72
2022/08/04 10:24:56;;;;;;;3.92;3.10;;;36.60;1.00;;;;;;5072221;28;20256;-72
2022/08/04 10:27:30;;;;;;;2.75;2.55;;;37.00;1.00;;;;;;5092114;28;20286;-72
2022/08/04 10:30:02;;;;;;;2.55;2.35;;;36.60;1.00;;;;;;5094039;28;20231;-72
2022/08/04 10:32:34;;;;;;;2.95;2.75;;;37.10;1.00;;;;;;5092886;28;20197;-72
2022/08/04 10:35:09;;;;;;;3.28;2.90;;;36.70;1.00;;;;;;5092325;28;20219;-72
2022/08/04 10:37:42;;;;;;;2.95;2.75;;;37.20;1.00;;;;;;5085038;28;20206;-72
2022/08/04 10:43:06;;;;;;;2.83;2.63;;;36.80;1.00;;;;;;5081496;28;20198;-69
2022/08/04 10:45:44;;;;;;;5.60;2.45;;;36.60;1.00;;;;;;5073655;28;20565;-69
2022/08/04 10:48:19;;;;;;;3.03;2.78;;;37.00;1.00;;;;;;5072513;28;20710;-69
2022/08/04 10:51:00;;;;;;;2.63;2.50;;;37.20;1.00;;;;;;5091917;28;20202;-69
2022/08/04 10:53:29;;;;;;;3.38;2.65;;;37.30;1.00;;;;;;5092850;28;20515;-69
2022/08/04 10:56:02;;;;;;;2.63;2.40;;;36.80;1.00;;;;;;5093405;28;20237;-69
2022/08/04 10:58:36;;;;;;;2.95;2.72;;;36.80;1.00;;;;;;5092798;28;20205;-69
2022/08/04 11:01:11;;;;;;;2.60;2.40;;;36.60;1.00;;;;;;5093101;28;20205;-69
2022/08/04 11:03:45;;;;;;;4.32;2.53;;;36.60;1.00;;;;;;5091848;28;20201;-69
2022/08/04 11:06:13;;;;;;;3.08;2.70;;;36.90;1.00;;;;;;5091744;28;20197;-70
2022/08/04 11:08:45;;;;;;;2.60;2.40;;;36.90;1.00;;;;;;5092697;28;20320;-69
2022/08/04 11:11:20;;;;;;;4.75;2.50;;;37.20;1.00;;;;;;5092403;28;20229;-69
2022/08/04 11:13:58;;;;;;;4.72;2.80;;;37.60;1.00;;;;;;5092935;28;20202;-69
2022/08/04 11:16:31;;;;;;;3.63;2.90;;;36.70;1.00;;;;;;5092878;28;20201;-69
2022/08/04 11:19:10;;;;;;;3.22;2.65;;;36.80;1.00;;;;;;5091539;28;20220;-73
2022/08/04 11:21:47;;;;;;;2.97;2.78;;;37.00;1.00;;;;;;5093124;28;20664;-73
2022/08/04 11:24:19;;;;;;;3.92;2.70;;;36.60;1.00;;;;;;5093239;28;20234;-73
2022/08/04 11:26:49;;;;;;;3.42;2.63;;;37.20;1.00;;;;;;5091532;28;20204;-73
2022/08/04 11:29:31;;;;;;;2.95;2.70;;;37.20;1.00;;;;;;5078220;28;20224;-73
2022/08/04 11:32:01;;;;;;;3.08;2.88;;;37.60;1.00;;;;;;5085283;28;20209;-73
2022/08/04 11:34:28;;;;;;;4.18;3.00;;;37.40;1.00;;;;;;5092778;28;20197;-73
2022/08/04 11:37:13;;;;;;;3.17;2.90;;;37.30;1.00;;;;;;5072654;28;20544;-73
2022/08/04 11:39:45;;;;;;;3.22;2.90;;;37.10;1.00;;;;;;5071335;28;20202;-73
2022/08/04 11:42:19;;;;;;;4.63;3.10;;;37.70;1.00;;;;;;5084176;28;20243;-72
2022/08/04 11:44:51;;;;;;;6.10;3.15;;;38.40;1.00;;;;;;5092566;28;20565;-72
2022/08/04 11:47:30;;;;;;;3.65;3.10;;;38.40;1.00;;;;;;5091972;28;20229;-72
2022/08/04 11:50:04;;;;;;;2.90;2.70;;;38.00;1.00;;;;;;5091581;28;20607;-69
2022/08/04 11:52:33;;;;;;;4.38;3.05;;;37.60;1.00;;;;;;5091901;28;20205;-69
2022/08/04 11:55:05;;;;;;;2.67;2.47;;;37.10;1.00;;;;;;5091068;28;20205;-69
2022/08/04 11:57:32;;;;;;;4.07;2.53;;;36.80;1.00;;;;;;5091443;28;20619;-69
2022/08/04 12:00:03;;;;;;;2.63;2.42;;;37.20;1.00;;;;;;5092245;28;20202;-69
2022/08/04 12:03:06;;;;;;;2.95;2.72;;;36.90;1.00;;;;;;5095868;28;20476;-72
2022/08/04 12:05:36;;;;;;;2.50;2.30;;;37.00;1.00;;;;;;5090087;28;20644;-69
2022/08/04 12:08:16;;;;;;;4.72;2.20;;;37.50;1.00;;;;;;5090659;28;20228;-72
2022/08/04 12:10:51;;;;;;;4.35;2.58;;;37.50;1.00;;;;;;5085283;28;20650;-72
2022/08/04 12:13:28;;;;;;;3.08;2.88;;;37.10;1.00;;;;;;5085892;28;20220;-72
2022/08/04 12:16:04;;;;;;;4.60;2.72;;;36.90;1.00;;;;;;5079841;28;20197;-69
2022/08/04 12:18:38;;;;;;;5.30;2.75;;;36.90;1.00;;;;;;5071952;28;20789;-73
2022/08/04 12:21:09;;;;;;;2.47;2.28;;;37.10;1.00;;;;;;5083811;28;20208;-73
2022/08/04 12:23:39;;;;;;;2.50;2.30;;;37.70;1.00;;;;;;5091810;28;20236;-73
2022/08/04 12:26:09;;;;;;;2.70;2.50;;;37.20;1.00;;;;;;5090983;28;20202;-73
2022/08/04 12:28:39;;;;;;;2.40;2.30;;;37.50;1.00;;;;;;5091760;28;20298;-78
2022/08/04 12:31:18;;;;;;;4.63;2.42;;;37.30;1.00;;;;;;5090053;28;20701;-78
2022/08/04 12:33:53;;;;;;;3.05;2.47;;;37.50;1.00;;;;;;5073412;28;20594;-78
2022/08/04 12:36:29;;;;;;;2.45;2.20;;;37.40;1.00;;;;;;5091129;28;20299;-73
2022/08/04 12:39:02;;;;;;;2.70;2.22;;;37.40;1.00;;;;;;5091466;28;20242;-78
2022/08/04 12:41:36;;;;;;;2.63;2.40;;;37.50;1.00;;;;;;5090745;28;20266;-73
2022/08/04 12:44:09;;;;;;;3.10;2.80;;;37.80;1.00;;;;;;5091135;28;20198;-72
2022/08/04 12:46:39;;;;;;;2.60;2.40;;;37.70;1.00;;;;;;5091248;28;20296;-73
2022/08/04 12:49:06;;;;;;;4.30;2.40;;;37.60;1.00;;;;;;5090195;28;20218;-72
2022/08/04 12:51:42;;;;;;;3.10;2.80;;;38.00;1.00;;;;;;5091423;28;20201;-73
2022/08/04 12:54:10;;;;;;;3.05;2.85;;;37.50;1.00;;;;;;5090208;28;20201;-73
2022/08/04 12:56:39;;;;;;;2.97;2.78;;;37.40;1.00;;;;;;5082103;28;20190;-72
2022/08/04 12:59:08;;;;;;;2.78;2.50;;;37.10;1.00;;;;;;5085665;28;20656;-72
2022/08/04 13:01:36;;;;;;;4.07;2.60;;;37.30;1.00;;;;;;5082774;28;20616;-72
2022/08/04 13:04:13;;;;;;;2.50;2.30;;;37.70;1.00;;;;;;5089586;28;20717;-72
2022/08/04 13:06:42;;;;;;;4.63;2.47;;;37.60;1.00;;;;;;5091139;28;20201;-73
2022/08/04 13:09:15;;;;;;;4.43;2.47;;;37.40;1.00;;;;;;5090410;28;20228;-77
2022/08/04 13:11:50;;;;;;;3.75;2.72;;;37.40;1.00;;;;;;5089890;28;20654;-69
2022/08/04 13:14:18;;;;;;;2.80;2.60;;;36.80;1.00;;;;;;5091477;28;20201;-78
2022/08/04 13:16:45;;;;;;;2.80;2.60;;;36.70;1.00;;;;;;5090451;28;20255;-72
2022/08/04 13:19:14;;;;;;;2.92;2.60;;;37.60;1.00;;;;;;5089110;28;20292;-72
2022/08/04 13:21:46;;;;;;;2.53;2.40;;;37.10;1.00;;;;;;5090725;28;20247;-72
2022/08/04 13:24:15;;;;;;;2.75;2.58;;;36.50;1.00;;;;;;5090081;28;20254;-78
2022/08/04 13:26:52;;;;;;;2.42;2.28;;;36.20;1.00;;;;;;5086096;28;20197;-78
2022/08/04 13:29:21;;;;;;;2.70;2.47;;;36.10;1.00;;;;;;5084578;28;20222;-73
2022/08/04 13:31:50;;;;;;;3.05;2.75;;;36.60;1.00;;;;;;5083619;28;20202;-72
2022/08/04 13:34:20;;;;;;;3.38;2.70;;;36.40;1.00;;;;;;5091805;28;20262;-73
2022/08/04 13:36:48;;;;;;;4.97;2.83;;;36.20;1.00;;;;;;5090647;28;20247;-72
2022/08/04 13:39:18;;;;;;;3.28;2.88;;;36.10;1.00;;;;;;5091701;28;20248;-69
2022/08/04 13:41:49;;;;;;;2.92;2.72;;;36.50;1.00;;;;;;5091392;28;20296;-69